This is the latest recevied weather packets stored in our database for station/object OE-11049. If no packets are shown the sender has not sent any weather packets the latest 10 day(s).
| Time | Temp. | Humidity | Pressure | Rain* | Wind** | Luminosity | Snow |
|---|---|---|---|---|---|---|---|
| 1788140491 | 17.78° C | 90% | 1014.4 hPa | 0.76 mm | - | 0 W/m² | - |
| 1788140118 | 17.78° C | 90% | 1014.5 hPa | 1.02 mm | - | 0 W/m² | - |
| 1788139518 | 18.33° C | 89% | 1014.2 hPa | 1.02 mm | - | 0 W/m² | - |
| 1788138690 | 18.33° C | 88% | 1014.4 hPa | 1.02 mm | - | 0 W/m² | - |
| 1788138318 | 18.33° C | 88% | 1014.9 hPa | 1.02 mm | - | 0 W/m² | - |
| 1788137718 | 18.89° C | 86% | 1015 hPa | 0.51 mm | - | 0 W/m² | - |
| 1788136890 | 18.89° C | 86% | 1014.9 hPa | 0.51 mm | - | 0 W/m² | - |
| 1788136518 | 18.89° C | 86% | 1015.2 hPa | 0.51 mm | - | 0 W/m² | - |
| 1788135918 | 18.89° C | 84% | 1015 hPa | 0.25 mm | - | 0 W/m² | - |
| 1788135091 | 19.44° C | 84% | 1014.9 hPa | 0.25 mm | - | 0 W/m² | - |
| 1788134718 | 19.44° C | 79% | 1014.6 hPa | 0 mm | - | 0 W/m² | - |
| 1788134118 | 19.44° C | 79% | 1014.4 hPa | 0 mm | - | 0 W/m² | - |
| 1788133529 | 20° C | 73% | 1014.5 hPa | 0 mm | - | 0 W/m² | - |
| 1788132917 | 20° C | 74% | 1014.6 hPa | 0 mm | - | 0 W/m² | - |
| 1788132317 | 19.44° C | 76% | 1014.6 hPa | 0 mm | - | 0 W/m² | - |
| 1788131718 | 19.44° C | 74% | 1014.3 hPa | 0 mm | - | 0 W/m² | - |
| 1788131118 | 19.44° C | 74% | 1014.5 hPa | 0 mm | - | 0 W/m² | - |
| 1788130518 | 19.44° C | 75% | 1014.6 hPa | 0 mm | - | 0 W/m² | - |
| 1788129691 | 18.89° C | 77% | 1014.7 hPa | 0 mm | - | 0 W/m² | - |
| 1788129318 | 18.89° C | 78% | 1014.9 hPa | 0 mm | - | 0 W/m² | - |
| 1788128718 | 18.89° C | 78% | 1014.7 hPa | 0 mm | - | 0 W/m² | - |
| 1788127892 | 18.89° C | 79% | 1014.8 hPa | 0 mm | - | 0 W/m² | - |
| 1788127518 | 18.89° C | 78% | 1014.7 hPa | 0 mm | - | 0 W/m² | - |
| 1788126918 | 18.89° C | 78% | 1014.6 hPa | 0 mm | - | 0 W/m² | - |
| 1788126091 | 18.89° C | 78% | 1014.8 hPa | 0 mm | - | 0 W/m² | - |
* Rain latest hour (hover to see other rain measurements)
** Current wind speed in m/s (hover to see current wind gust speed)